Tiempo atmosférico en la estación meteorológica de Hijar, Teruel (300 m.)



Fecha
DESCASC
Temp. máxima en grados centígrados (hora)
DESCASC
Temp. mínima en grados centígrados (hora)
DESCASC
Temp. media en grados centígrados
DESCASC
Racha de viento máxima en m/sg (hora)
DESCASC
Velocidad máxima media en intervalos de 10 minutos(hora)
DESCASC
Precipitaciones diarias en mm
DESCASC
Precipitaciones de 00:00 a 06:00 en mm
DESCASC
Precipitaciones de 06:00 a 12:00 en mm
DESCASC
Precipitaciones de 12:00 a 18:00 en mm
DESCASC
Precipitaciones de 18:00 a 24:00 en mm
DESCASC
22-08-2019 32.3 (16:50) 16.5 (07:40) 24.4 6.11 (17:40) 3.61 (01:00) 0 0 0 0 0
21-08-2019 28.5 (14:10) 17.7 (05:10) 23.1 6.11 (20:20) 3.61 (20:20) 0 0 0 0 0
20-08-2019 23.7 (17:30) 16 (12:20) 19.9 6.67 (05:50) 3.61 (11:00) 4.4 0 3.2 1.2 0
19-08-2019 -- (--) -- (--) -- -- (--) -- (--) -- 0 0 -- --
18-08-2019 38.4 (16:20) 19.5 (00:00) 29 11.67 (18:10) 7.5 (18:10) 0 0 0 0 0
17-08-2019 37.4 (17:40) 19.5 (00:00) 28.5 10.28 (18:50) 6.39 (18:50) 0 0 0 0 0
16-08-2019 35.1 (17:40) 17.6 (00:00) 26.3 6.11 (18:10) 4.17 (21:00) 0 0 0 0 0
15-08-2019 34.2 (15:40) 20.5 (00:00) 27.4 8.89 (15:20) 5 (04:30) 0 0 0 0 0
14-08-2019 35.3 (16:50) 15.6 (00:00) 25.4 8.89 (17:50) 4.44 (00:40) 0 0 0 0 0
13-08-2019 30.6 (17:10) 15.8 (00:00) 23.2 10 (00:20) 6.39 (00:30) 0 0 0 0 0
12-08-2019 29.5 (15:10) 17.4 (00:00) 23.4 13.89 (19:10) 5.83 (01:00) 0 0 0 0 0
11-08-2019 34.8 (16:50) 19.4 (00:00) 27.1 8.61 (23:00) 3.61 (23:00) 0 0 0 0 0
10-08-2019 35.3 (16:00) 21.8 (00:00) 28.5 7.5 (00:50) 3.89 (08:10) 0 0 0 0 0
09-08-2019 42.4 (15:30) 23 (00:00) 32.7 14.17 (21:00) 8.61 (21:00) 0 0 0 0 0
08-08-2019 37.5 (17:20) 22.4 (00:00) 29.9 8.33 (22:20) 5.83 (22:20) 0 0 0 0 0
07-08-2019 31.9 (15:50) 22.5 (00:00) 27.2 7.5 (04:10) 4.72 (06:20) 0 0 0 0 0
06-08-2019 37.4 (18:00) 20.3 (00:00) 28.9 7.22 (20:50) 4.44 (20:50) 0 0 0 0 0
05-08-2019 37 (17:50) 21.1 (00:00) 29.1 -- (--) -- (--) 0 0 0 0 0
04-08-2019 37.8 (17:00) 19.6 (00:00) 28.7 14.72 (19:20) 8.89 (19:30) 0 0 0 0 0
03-08-2019 37.8 (17:20) 18.9 (00:00) 28.3 12.78 (19:40) 7.78 (19:40) 0 0 0 0 0
02-08-2019 35.9 (17:00) 19.8 (00:00) 27.9 7.22 (01:00) 3.61 (03:40) 0 0 0 0 0
01-08-2019 35.4 (16:40) 18.3 (00:00) 26.9 6.67 (19:20) 4.72 (19:20) 0 0 0 0 0
31-07-2019 32 (17:40) 15.7 (00:00) 23.8 11.67 (18:40) 7.5 (18:50) 0 0 0 0 0
30-07-2019 31.2 (15:50) 17.8 (00:00) 24.5 11.67 (02:20) 6.39 (07:20) 0 0 0 0 0
29-07-2019 36.1 (16:50) 16.6 (00:00) 26.3 7.5 (23:59) 5.56 (23:30) 0 0 0 0 0
28-07-2019 31.2 (17:10) 15.9 (00:00) 23.6 13.33 (03:50) 8.06 (03:50) 0 0 0 0 0
27-07-2019 30.5 (15:10) 18.3 (00:00) 24.4 13.89 (17:30) 6.39 (16:40) 0.2 0 0.2 0 0
26-07-2019 29.7 (17:00) 21 (00:00) 25.4 8.89 (12:30) 6.11 (14:40) 0.8 0 0.6 0.2 0

Gráficas

Temp. máximas Temp. mínimas Temp. medias Precipitaciones Rachas de viento máximas Velocidades máximas media en intervalos de 10 minutos

Datos horarios

Fecha y hora oficial Temperatura (ºC) Velocidad del viento (km/h) Dirección del viento Racha (km/h) Dirección de racha Precipitación (mm) Presión (hPa) Tendencia (hPa) Humedad (%)
2019-08-24 23:00:00 27.2 18 Sur 25 Sur 0 -- -- 43
2019-08-24 22:00:00 28.2 14 Sudeste 27 Sudeste 0 -- -- 43
2019-08-24 21:00:00 30.2 15 Este 23 Este 0 -- -- 33
2019-08-24 20:00:00 32.2 3 Norte 17 Nordeste 0 -- -- 23
2019-08-24 19:00:00 33.5 9 Nordeste 18 Nordeste 0 -- -- 22
2019-08-24 18:00:00 35.1 6 Norte 27 Este 0 -- -- 23
2019-08-24 17:00:00 34.5 12 Este 29 Este 0 -- -- 25
2019-08-24 16:00:00 34.1 13 Nordeste 28 Este 0 -- -- 28
2019-08-24 15:00:00 34 13 Nordeste 28 Nordeste 0 -- -- 30
2019-08-24 14:00:00 33.2 11 Este 22 Este 0 -- -- 32
2019-08-24 13:00:00 31.6 7 Nordeste 17 Este 0 -- -- 37
2019-08-24 12:00:00 29.1 6 Nordeste 15 Nordeste 0 -- -- 41
2019-08-24 11:00:00 26.5 4 Norte 10 Norte 0 -- -- 54
2019-08-24 10:00:00 23.8 3 Noroeste 8 Oeste 0 -- -- 61
2019-08-24 09:00:00 20.2 5 Sudoeste 11 Sudoeste 0 -- -- 65
2019-08-24 08:00:00 17.1 9 Sudoeste 12 Sudoeste 0 -- -- 73
2019-08-24 07:00:00 17 8 Oeste 12 Oeste 0 -- -- 77
2019-08-24 06:00:00 17.6 8 Oeste 12 Oeste 0 -- -- 74
2019-08-24 05:00:00 18.2 8 Sudoeste 10 Sudoeste 0 -- -- 69
2019-08-24 04:00:00 19.5 4 Oeste 8 Oeste 0 -- -- 64
2019-08-24 03:00:00 20.7 4 Sudoeste 7 Sudoeste 0 -- -- 61
2019-08-24 02:00:00 21.8 5 Sur 12 Este 0 -- -- 59
2019-08-24 01:00:00 23.8 11 Este 18 Este 0 -- -- 54
2019-08-24 00:00:00 25.3 4 Nordeste 30 Sur 0 -- -- 51
2019-08-23 23:00:00 26.8 18 Sur 29 Sur 0 -- -- 49
2019-08-23 22:00:00 28 20 Sur 26 Sur 0 -- -- 46
2019-08-23 21:00:00 29.6 12 Este 15 Este 0 -- -- 29
2019-08-23 20:00:00 31.1 10 Nordeste 21 Nordeste 0 -- -- 26
2019-08-23 19:00:00 32.8 6 Norte 22 Este 0 -- -- 25
2019-08-23 18:00:00 33.2 10 Nordeste 23 Este 0 -- -- 25
2019-08-23 17:00:00 33.8 10 Nordeste 23 Nordeste 0 -- -- 24
2019-08-23 16:00:00 33.7 8 Este 22 Nordeste 0 -- -- 23
2019-08-23 15:00:00 33.6 6 Norte 18 Nordeste 0 -- -- 28
2019-08-23 14:00:00 31.5 6 Nordeste 20 Nordeste 0 -- -- 33
2019-08-23 13:00:00 29.4 7 Nordeste 16 Nordeste 0 -- -- 39
2019-08-23 12:00:00 27.4 5 Nordeste 14 Nordeste 0 -- -- 43
2019-08-23 11:00:00 25 4 Norte 12 Nordeste 0 -- -- 48
2019-08-23 10:00:00 22.9 4 Nordeste 9 Nordeste 0 -- -- 53
2019-08-23 09:00:00 20.1 4 Nordeste 6 Nordeste 0 -- -- 60
2019-08-23 08:00:00 16.7 4 Sudoeste 11 Sudoeste 0 -- -- 65
2019-08-23 07:00:00 16.3 7 Sudoeste 13 Sudoeste 0 -- -- 65
2019-08-23 06:00:00 16.2 6 Sudoeste 12 Sudoeste 0 -- -- 63
2019-08-23 05:00:00 17 6 Sudoeste 10 Sudoeste 0 -- -- 60
2019-08-23 04:00:00 17.6 6 Sudoeste 10 Oeste 0 -- -- 57
2019-08-23 03:00:00 18.4 2 Oeste 5 Sur 0 -- -- 55
2019-08-23 02:00:00 19.3 3 Este 13 Sudoeste 0 -- -- 53
2019-08-23 01:00:00 20.7 8 Sudoeste 12 Sudoeste 0 -- -- 46
2019-08-23 00:00:00 21.5 7 Sudoeste 13 Sudoeste 0 -- -- 44
2019-08-22 23:00:00 22.5 5 Sudoeste 10 Sudoeste 0 -- -- 42
2019-08-22 22:00:00 24.5 7 Sudoeste 9 Sudoeste 0 -- -- 37
2019-08-22 21:00:00 26.8 0 Calma 5 Norte 0 -- -- 34
2019-08-22 20:00:00 28.9 3 Noroeste 13 Norte 0 -- -- 32
2019-08-22 19:00:00 30.7 5 Noroeste 16 Noroeste 0 -- -- 30
2019-08-22 18:00:00 31.8 5 Norte 22 Norte 0 -- -- 29
2019-08-22 17:00:00 32 8 Norte 20 Norte 0 -- -- 31
2019-08-22 16:00:00 30.9 6 Nordeste 19 Noroeste 0 -- -- 34
2019-08-22 15:00:00 30.4 5 Norte 16 Noroeste 0 -- -- 35
2019-08-22 14:00:00 29.5 5 Norte 15 Norte 0 -- -- 37
2019-08-22 13:00:00 28 5 Norte 15 Norte 0 -- -- 39
2019-08-22 12:00:00 26.1 6 Nordeste 18 Oeste 0 -- -- 43
2019-08-22 11:00:00 24.7 5 Noroeste 18 Noroeste 0 -- -- 44
2019-08-22 10:00:00 22.8 8 Oeste 21 Noroeste 0 -- -- 47
2019-08-22 09:00:00 19.2 10 Sudoeste 14 Sudoeste 0 -- -- 61
2019-08-22 08:00:00 16.9 11 Sudoeste 15 Sudoeste 0 -- -- 65
2019-08-22 07:00:00 17.2 11 Sudoeste 18 Sudoeste 0 -- -- 64
2019-08-22 06:00:00 17.4 11 Sudoeste 16 Oeste 0 -- -- 66
2019-08-22 05:00:00 17.6 10 Sudoeste 15 Oeste 0 -- -- 68
2019-08-22 04:00:00 18.1 8 Oeste 13 Oeste 0 -- -- 73
2019-08-22 03:00:00 19.6 10 Oeste 20 Oeste 0 -- -- 69
2019-08-22 02:00:00 20.1 10 Oeste 18 Sudoeste 0 -- -- 72
2019-08-22 01:00:00 20.6 13 Oeste 17 Sudoeste 0 -- -- 67
2019-08-22 00:00:00 21.2 9 Sudoeste 13 Sudoeste 0 -- -- 72
2019-08-21 23:00:00 22 4 Sur 9 Nordeste 0 -- -- 71
2019-08-21 22:00:00 23.4 4 Nordeste 14 Sudoeste 0 -- -- 63
2019-08-21 21:00:00 24.3 9 Oeste 22 Oeste 0 -- -- 60
2019-08-21 20:00:00 24.3 8 Sudoeste 15 Sudoeste 0 -- -- 60
2019-08-21 19:00:00 24.5 6 Oeste 13 Oeste 0 -- -- 60
2019-08-21 18:00:00 24.4 6 Sudoeste 8 Sudoeste 0 -- -- 59
2019-08-21 17:00:00 25.1 4 Sudoeste 6 Sudoeste 0 -- -- 56
2019-08-21 16:00:00 26.6 3 Nordeste 13 Norte 0 -- -- 52
2019-08-21 15:00:00 27.8 5 Noroeste 14 Norte 0 -- -- 50
2019-08-21 14:00:00 27.6 5 Norte 14 Norte 0 -- -- 49
2019-08-21 13:00:00 26.4 4 Noroeste 11 Norte 0 -- -- 52
2019-08-21 12:00:00 25.3 4 Norte 15 Noroeste 0 -- -- 56
2019-08-21 11:00:00 23.5 3 Noroeste 10 Norte 0 -- -- 57
2019-08-21 10:00:00 20.3 3 Norte 7 Nordeste 0 -- -- 69
2019-08-21 09:00:00 18.8 5 Este 6 Nordeste 0 -- -- 76
2019-08-21 08:00:00 18.1 4 Este 7 Este 0 -- -- 79
2019-08-21 07:00:00 17.9 2 Noroeste 5 Oeste 0 -- -- 78
2019-08-21 06:00:00 17.8 0 Calma 5 Norte 0 -- -- 77
2019-08-21 05:00:00 17.8 3 Norte 7 Norte 0 -- -- 79
2019-08-21 04:00:00 18.5 3 Noroeste 8 Oeste 0 -- -- 77
2019-08-21 03:00:00 18.8 4 Noroeste 12 Noroeste 0 -- -- 76
2019-08-21 02:00:00 18.9 2 Noroeste 6 Norte 0 -- -- 82
2019-08-21 01:00:00 19.4 0 Calma 10 Oeste 0 -- -- 82
2019-08-21 00:00:00 19.8 3 Oeste 7 Oeste 0 -- -- 82
2019-08-20 23:00:00 21 0 Calma 5 Sur 0 -- -- 75
2019-08-20 22:00:00 21.2 0 Calma 9 Sur 0 -- -- 73
2019-08-20 21:00:00 21.8 6 Sur 14 Sur 0 -- -- 71
2019-08-20 20:00:00 22.4 9 Sur 14 Sur 0 -- -- 68
2019-08-20 19:00:00 22.8 8 Sudeste 15 Este 0 -- -- 67
2019-08-20 18:00:00 23.2 7 Nordeste 14 Nordeste 0 -- -- 65
2019-08-20 17:00:00 22.7 3 Norte 9 Oeste 0 -- -- 68
2019-08-20 16:00:00 20.9 4 Sudoeste 9 Sudoeste 0 -- -- 80
2019-08-20 15:00:00 17.6 6 Sudoeste 13 Sudoeste 0.8 -- -- 94
2019-08-20 14:00:00 16.4 9 Oeste 18 Oeste 0.2 -- -- 94
2019-08-20 13:00:00 16.3 9 Oeste 23 Oeste 0.2 -- -- 95
2019-08-20 12:00:00 16.3 6 Oeste 21 Oeste 1.2 -- -- 96
2019-08-20 11:00:00 16.1 13 Oeste 21 Oeste 1.2 -- -- 95
2019-08-20 10:00:00 16.1 7 Noroeste 17 Oeste 0.2 -- -- 94
2019-08-20 09:00:00 16.7 4 Noroeste 13 Noroeste 0.4 -- -- 94
2019-08-20 08:00:00 16.2 9 Oeste 13 Noroeste 0 -- -- 94
2019-08-20 07:00:00 16.4 8 Oeste 14 Oeste 0.2 -- -- 92
2019-08-20 06:00:00 17.4 6 Noroeste 24 Noroeste 0 -- -- 85
2019-08-20 05:00:00 18.8 6 Noroeste 23 Noroeste 0 -- -- 74
2019-08-20 04:00:00 19.3 6 Noroeste 23 Noroeste 0 -- -- 72
2019-08-20 03:00:00 20.6 7 Noroeste 22 Noroeste 0 -- -- 64
2019-08-20 02:00:00 21.7 8 Noroeste 17 Oeste 0 -- -- 60
2019-08-20 01:00:00 22.2 4 Noroeste 16 Oeste 0 -- -- 57
2019-08-20 00:00:00 22.4 6 Noroeste 19 Oeste 0 -- -- 55
2019-08-19 23:00:00 23 7 Noroeste 21 Noroeste 0 -- -- 51
2019-08-19 22:00:00 23.9 8 Noroeste 27 Norte 0 -- -- 49
2019-08-19 21:00:00 25.8 12 Noroeste 29 Noroeste 0 -- -- 43
2019-08-19 20:00:00 27.3 12 Norte -- -- -- -- -- 42
2019-08-19 19:00:00 -- -- -- -- -- -- -- -- --
2019-08-19 18:00:00 -- -- -- -- -- -- -- -- --
2019-08-19 17:00:00 -- -- -- -- -- -- -- -- --
2019-08-19 16:00:00 32.7 7 Norte 22 Norte 0 -- -- 35
2019-08-19 15:00:00 31.3 7 Norte 22 Norte 0 -- -- 36
2019-08-19 14:00:00 29.8 6 Norte 18 Nordeste 0 -- -- 39
2019-08-19 13:00:00 28.9 5 Norte 12 Norte 0 -- -- 40
2019-08-19 12:00:00 26.9 4 Norte 15 Noroeste 0 -- -- 45
2019-08-19 11:00:00 25.4 4 Oeste 12 Oeste 0 -- -- 47
2019-08-19 10:00:00 23.4 5 Noroeste 19 Oeste 0 -- -- 52
2019-08-19 09:00:00 20.7 14 Oeste 22 Oeste 0 -- -- 59
2019-08-19 08:00:00 19.3 12 Oeste 24 Oeste 0 -- -- 65
2019-08-19 07:00:00 19 17 Oeste 26 Oeste 0 -- -- 66
2019-08-19 06:00:00 19.2 17 Oeste 27 Oeste 0 -- -- 66
2019-08-19 05:00:00 19.5 15 Oeste 23 Oeste 0 -- -- 66
2019-08-19 04:00:00 20.4 15 Oeste 26 Oeste 0 -- -- 64
2019-08-19 03:00:00 21.2 14 Oeste 26 Oeste 0 -- -- 63
2019-08-19 02:00:00 22.5 14 Oeste 31 Oeste 0 -- -- 60
2019-08-19 01:00:00 23.7 18 Oeste 32 Oeste 0 -- -- 58
2019-08-19 00:00:00 25.1 17 Oeste 37 Noroeste 0 -- -- 54
2019-08-18 23:00:00 26.7 18 Noroeste 34 Oeste 0 -- -- 51
2019-08-18 22:00:00 28.9 12 Norte 24 Norte 0 -- -- 60
2019-08-18 21:00:00 31.6 18 Este 25 Nordeste 0 -- -- 51
2019-08-18 20:00:00 34.4 12 Este 35 Este 0 -- -- 40
2019-08-18 19:00:00 35.1 23 Este 42 Este 0 -- -- 32
2019-08-18 18:00:00 37.4 21 Este 36 Nordeste 0 -- -- 32
2019-08-18 17:00:00 37.5 21 Nordeste 30 Nordeste 0 -- -- 30
2019-08-18 16:00:00 37.6 11 Nordeste 33 Este 0 -- -- 28
2019-08-18 15:00:00 35.8 10 Este 23 Nordeste 0 -- -- 34
2019-08-18 14:00:00 34.5 10 Nordeste 21 Nordeste 0 -- -- 39
2019-08-18 13:00:00 33 5 Norte 14 Nordeste 0 -- -- 45
2019-08-18 12:00:00 30 4 Norte 12 Noroeste 0 -- -- 55
2019-08-18 11:00:00 28.1 4 Norte 11 Norte 0 -- -- 61
2019-08-18 10:00:00 26.3 3 Noroeste 11 Oeste 0 -- -- 67
2019-08-18 09:00:00 22.7 7 Oeste 11 Oeste 0 -- -- 78
2019-08-18 08:00:00 20.1 6 Oeste 10 Oeste 0 -- -- 88
2019-08-18 07:00:00 19.6 7 Oeste 12 Sudoeste 0 -- -- 90
2019-08-18 06:00:00 19.9 5 Sudoeste 8 Oeste 0 -- -- 89
2019-08-18 05:00:00 20.5 5 Sudoeste 8 Sudoeste 0 -- -- 87
2019-08-18 04:00:00 21.5 3 Sudoeste 5 Sudoeste 0 -- -- 85
2019-08-18 03:00:00 22.6 0 Calma 6 Norte 0 -- -- 82
2019-08-18 02:00:00 23.5 2 Norte 9 Nordeste 0 -- -- 79
2019-08-18 01:00:00 24.5 7 Nordeste 11 Nordeste 0 -- -- 74
2019-08-18 00:00:00 25.1 7 Nordeste 24 Nordeste 0 -- -- 71
2019-08-17 23:00:00 26.4 14 Nordeste 20 Este 0 -- -- 67
2019-08-17 22:00:00 28 17 Nordeste 24 Nordeste 0 -- -- 62
2019-08-17 21:00:00 30.5 17 Nordeste 32 Este 0 -- -- 53
2019-08-17 20:00:00 33 23 Nordeste 36 Nordeste 0 -- -- 46
2019-08-17 19:00:00 35.5 23 Este 37 Este 0 -- -- 37
2019-08-17 18:00:00 36.9 10 Este 26 Nordeste 0 -- -- 29
2019-08-17 17:00:00 36.5 12 Este 22 Este 0 -- -- 32
2019-08-17 16:00:00 36.2 10 Nordeste 24 Este 0 -- -- 33
2019-08-17 15:00:00 34.9 8 Nordeste 17 Nordeste 0 -- -- 38
2019-08-17 14:00:00 33.8 5 Norte 13 Noroeste 0 -- -- 42
2019-08-17 13:00:00 31.8 4 Noroeste 10 Noroeste 0 -- -- 47
2019-08-17 12:00:00 29.6 4 Nordeste 13 Noroeste 0 -- -- 53
2019-08-17 11:00:00 28.3 4 Norte 12 Norte 0 -- -- 57
2019-08-17 10:00:00 26.6 3 Noroeste 13 Norte 0 -- -- 62
2019-08-17 09:00:00 23.7 4 Noroeste 13 Oeste 0 -- -- 70
2019-08-17 08:00:00 20 9 Oeste 11 Sudoeste 0 -- -- 81
2019-08-17 07:00:00 20 6 Sudoeste 8 Sudoeste 0 -- -- 82
2019-08-17 06:00:00 20.4 5 Sudoeste 8 Oeste 0 -- -- 78
2019-08-17 05:00:00 21.3 3 Sudoeste 4 Este 0 -- -- 76
2019-08-17 04:00:00 22.3 2 Nordeste 5 Nordeste 0 -- -- 74
2019-08-17 03:00:00 23.3 3 Este 15 Este 0 -- -- 69
2019-08-17 02:00:00 24.4 11 Nordeste 15 Nordeste 0 -- -- 65
2019-08-17 01:00:00 26.4 13 Sudeste 17 Este 0 -- -- 61
2019-08-17 00:00:00 27.3 8 Este 12 Nordeste 0 -- -- 57
2019-08-16 23:00:00 27.5 11 Nordeste 15 Nordeste 0 -- -- 52
2019-08-16 22:00:00 29.7 8 Este 20 Este 0 -- -- 47
2019-08-16 21:00:00 31.5 15 Este 22 Este 0 -- -- 43
2019-08-16 20:00:00 32.9 8 Este 18 Nordeste 0 -- -- 32
2019-08-16 19:00:00 32.9 11 Este 22 Nordeste 0 -- -- 34
2019-08-16 18:00:00 34.5 9 Nordeste 19 Nordeste 0 -- -- 32
2019-08-16 17:00:00 34.2 7 Nordeste 19 Este 0 -- -- 29
2019-08-16 16:00:00 33.2 8 Nordeste 20 Nordeste 0 -- -- 30
2019-08-16 15:00:00 32.8 5 Norte 14 Este 0 -- -- 30
2019-08-16 14:00:00 30.2 7 Nordeste 17 Nordeste 0 -- -- 33
2019-08-16 13:00:00 28.4 6 Norte 17 Nordeste 0 -- -- 35
2019-08-16 12:00:00 27.1 6 Nordeste 15 Nordeste 0 -- -- 40
2019-08-16 11:00:00 24.9 5 Nordeste 10 Este 0 -- -- 43
2019-08-16 10:00:00 22.1 2 Este 9 Noroeste 0 -- -- 48
2019-08-16 09:00:00 20.9 4 Norte 11 Norte 0 -- -- 49
2019-08-16 08:00:00 18.2 0 Calma 3 Sudeste 0 -- -- 59
2019-08-16 07:00:00 18 0 Calma 6 Sudeste 0 -- -- 58
2019-08-16 06:00:00 18.5 6 Sudeste 10 Este 0 -- -- 56
2019-08-16 05:00:00 19.2 6 Sudeste 13 Este 0 -- -- 55
2019-08-16 04:00:00 19.8 8 Este 12 Este 0 -- -- 54
2019-08-16 03:00:00 20.7 2 Oeste 9 Oeste 0 -- -- 52
2019-08-16 02:00:00 21.8 4 Noroeste 16 Oeste 0 -- -- 49
2019-08-16 01:00:00 22.7 13 Oeste 19 Sudoeste 0 -- -- 47
2019-08-16 00:00:00 23.6 11 Sudoeste 26 Oeste 0 -- -- 44
2019-08-15 23:00:00 24.8 14 Oeste 26 Oeste 0 -- -- 39
2019-08-15 22:00:00 26 11 Noroeste 24 Noroeste 0 -- -- 37
2019-08-15 21:00:00 28 6 Noroeste 24 Norte 0 -- -- 31
2019-08-15 20:00:00 30.4 7 Noroeste 25 Noroeste 0 -- -- 30
2019-08-15 19:00:00 32.2 9 Noroeste 27 Noroeste 0 -- -- 27
2019-08-15 18:00:00 34 10 Norte 28 Noroeste 0 -- -- 29
2019-08-15 17:00:00 34 10 Noroeste 28 Noroeste 0 -- -- 33
2019-08-15 16:00:00 34 11 Norte 32 Norte 0 -- -- 34
2019-08-15 15:00:00 33.5 8 Norte 28 Norte 0 -- -- 36
2019-08-15 14:00:00 32.9 9 Noroeste 23 Noroeste 0 -- -- 35
2019-08-15 13:00:00 31.2 7 Noroeste 21 Noroeste 0 -- -- 38
2019-08-15 12:00:00 30.1 8 Noroeste 23 Oeste 0 -- -- 42
2019-08-15 11:00:00 28 6 Noroeste 19 Noroeste 0 -- -- 46
2019-08-15 10:00:00 25 7 Noroeste 30 Oeste 0 -- -- 55
2019-08-15 09:00:00 23.4 11 Oeste 24 Oeste 0 -- -- 60
2019-08-15 08:00:00 20.9 15 Oeste 22 Oeste 0 -- -- 67
2019-08-15 07:00:00 20.5 12 Oeste 21 Oeste 0 -- -- 68
2019-08-15 06:00:00 20.8 14 Sudoeste 23 Sudoeste 0 -- -- 66
2019-08-15 05:00:00 21.5 14 Oeste 26 Oeste 0 -- -- 62
2019-08-15 04:00:00 22.3 14 Sudoeste 24 Sudoeste 0 -- -- 57
2019-08-15 03:00:00 23.1 13 Oeste 26 Oeste 0 -- -- 51
2019-08-15 02:00:00 24.1 14 Oeste 26 Oeste 0 -- -- 46
2019-08-15 01:00:00 24.7 14 Oeste 21 Oeste 0 -- -- 43
2019-08-15 00:00:00 25.3 12 Sudoeste 16 Sudoeste 0 -- -- 36
2019-08-14 23:00:00 25.8 10 Oeste 14 Oeste 0 -- -- 33
2019-08-14 22:00:00 27.6 3 Sudoeste 8 Noroeste 0 -- -- 30
2019-08-14 21:00:00 29.8 2 Norte 9 Norte 0 -- -- 27
2019-08-14 20:00:00 31.9 4 Noroeste 18 Noroeste 0 -- -- 25
2019-08-14 19:00:00 33.3 5 Norte 24 Noroeste 0 -- -- 23
2019-08-14 18:00:00 34.5 8 Norte 32 Norte 0 -- -- 22
2019-08-14 17:00:00 35.2 6 Noroeste 23 Noroeste 0 -- -- 21
2019-08-14 16:00:00 34.6 8 Norte 19 Noroeste 0 -- -- 22
2019-08-14 15:00:00 33.1 7 Norte 18 Norte 0 -- -- 22
2019-08-14 14:00:00 31.4 5 Nordeste 14 Noroeste 0 -- -- 25
2019-08-14 13:00:00 30.3 4 Noroeste 13 Noroeste 0 -- -- 26
2019-08-14 12:00:00 26.9 3 Noroeste 10 Oeste 0 -- -- 31
2019-08-14 11:00:00 24 5 Este 13 Este 0 -- -- 36
2019-08-14 10:00:00 20.8 8 Este 14 Este 0 -- -- 44
2019-08-14 09:00:00 18.5 8 Nordeste 14 Nordeste 0 -- -- 51
2019-08-14 08:00:00 16.5 2 Nordeste 12 Sudoeste 0 -- -- 56
2019-08-14 07:00:00 16 8 Sudoeste 21 Sudoeste 0 -- -- 56
2019-08-14 06:00:00 16.9 15 Sudoeste 21 Oeste 0 -- -- 55
2019-08-14 05:00:00 17.4 16 Sudoeste 23 Sudoeste 0 -- -- 54
2019-08-14 04:00:00 17.2 11 Sudoeste 17 Oeste 0 -- -- 55
2019-08-14 03:00:00 18.4 13 Sudoeste 17 Sudoeste 0 -- -- 51
2019-08-14 02:00:00 19.5 11 Sudoeste 26 Sudoeste 0 -- -- 49
2019-08-14 01:00:00 19.9 14 Sudoeste 24 Sudoeste 0 -- -- 47
2019-08-14 00:00:00 20.6 14 Sudoeste 32 Oeste 0 -- -- 44
2019-08-13 23:00:00 21.6 17 Oeste 28 Oeste 0 -- -- 40
2019-08-13 22:00:00 22.9 10 Noroeste 22 Noroeste 0 -- -- 36
2019-08-13 21:00:00 24.5 5 Noroeste 23 Norte 0 -- -- 33
2019-08-13 20:00:00 26.5 11 Noroeste 32 Noroeste 0 -- -- 31
2019-08-13 19:00:00 28.4 11 Noroeste 29 Noroeste 0 -- -- 28
2019-08-13 18:00:00 29.8 11 Norte 35 Noroeste 0 -- -- 28
2019-08-13 17:00:00 30.2 8 Noroeste 35 Noroeste 0 -- -- 28
2019-08-13 16:00:00 29.8 10 Noroeste 31 Noroeste 0 -- -- 28
2019-08-13 15:00:00 29 11 Noroeste 30 Norte 0 -- -- 30
2019-08-13 14:00:00 27.6 8 Noroeste 25 Oeste 0 -- -- 31
2019-08-13 13:00:00 26.1 6 Noroeste 27 Oeste 0 -- -- 34
2019-08-13 12:00:00 24.6 10 Noroeste 27 Norte 0 -- -- 37
2019-08-13 11:00:00 22.2 9 Oeste 24 Noroeste 0 -- -- 43
2019-08-13 10:00:00 20.1 5 Noroeste 28 Oeste 0 -- -- 47
2019-08-13 09:00:00 18 9 Noroeste 26 Oeste 0 -- -- 51
2019-08-13 08:00:00 15.8 11 Oeste 18 Oeste 0 -- -- 56
2019-08-13 07:00:00 16.2 11 Oeste 23 Oeste 0 -- -- 55
2019-08-13 06:00:00 16.5 13 Oeste 24 Oeste 0 -- -- 56
2019-08-13 05:00:00 16.5 14 Oeste 31 Oeste 0 -- -- 58
2019-08-13 04:00:00 16.6 19 Oeste 35 Oeste 0 -- -- 58
2019-08-13 03:00:00 16.4 17 Oeste 31 Oeste 0 -- -- 57
2019-08-13 02:00:00 16.5 10 Oeste 28 Oeste 0 -- -- 57
2019-08-13 01:00:00 17.2 16 Oeste 36 Oeste 0 -- -- 57
2019-08-13 00:00:00 18.1 19 Oeste 34 Oeste 0 -- -- 54
2019-08-12 23:00:00 19.3 14 Noroeste 33 Noroeste 0 -- -- 51
2019-08-12 22:00:00 20.5 9 Noroeste 33 Oeste 0 -- -- 44
2019-08-12 21:00:00 22 11 Noroeste 41 Noroeste 0 -- -- 40
2019-08-12 20:00:00 24.1 17 Noroeste 50 Noroeste 0 -- -- 36
2019-08-12 19:00:00 26.2 14 Noroeste 48 Norte 0 -- -- 31
2019-08-12 18:00:00 28.1 13 Noroeste 42 Norte 0 -- -- 30
2019-08-12 17:00:00 28.8 13 Noroeste 37 Norte 0 -- -- 28
2019-08-12 16:00:00 29 13 Noroeste 36 Norte 0 -- -- 30
2019-08-12 15:00:00 28.9 10 Noroeste 34 Norte 0 -- -- 31
2019-08-12 14:00:00 28.3 12 Noroeste 35 Norte 0 -- -- 33
2019-08-12 13:00:00 26.6 11 Noroeste 39 Noroeste 0 -- -- 36
2019-08-12 12:00:00 25.5 11 Noroeste 37 Oeste 0 -- -- 39
2019-08-12 11:00:00 23.8 12 Noroeste 37 Oeste 0 -- -- 45
2019-08-12 10:00:00 21.7 16 Noroeste 37 Oeste 0 -- -- 50
2019-08-12 09:00:00 19.4 14 Oeste 31 Oeste 0 -- -- 57
2019-08-12 08:00:00 17.8 15 Oeste 30 Oeste 0 -- -- 62
2019-08-12 07:00:00 17.6 16 Oeste 34 Oeste 0 -- -- 63
2019-08-12 06:00:00 17.6 15 Oeste 28 Oeste 0 -- -- 63
2019-08-12 05:00:00 18 8 Oeste 28 Oeste 0 -- -- 63
2019-08-12 04:00:00 18.9 16 Oeste 32 Noroeste 0 -- -- 61
2019-08-12 03:00:00 19.9 15 Oeste 30 Oeste 0 -- -- 56
2019-08-12 02:00:00 20.7 14 Oeste 32 Oeste 0 -- -- 54
2019-08-12 01:00:00 21.6 21 Oeste 33 Oeste 0 -- -- 51
2019-08-12 00:00:00 22.6 12 Noroeste 30 Noroeste 0 -- -- 50
2019-08-11 23:00:00 24.1 13 Noroeste 31 Oeste 0 -- -- 47
2019-08-11 22:00:00 25.9 8 Noroeste 25 Noroeste 0 -- -- 42
2019-08-11 21:00:00 28.2 7 Noroeste 28 Norte 0 -- -- 36
2019-08-11 20:00:00 31.1 3 Noroeste 13 Noroeste 0 -- -- 34
2019-08-11 19:00:00 32.1 6 Nordeste 15 Noroeste 0 -- -- 33
2019-08-11 18:00:00 34.4 6 Noroeste 22 Norte 0 -- -- 30
2019-08-11 17:00:00 34 6 Norte 23 Noroeste 0 -- -- 33
2019-08-11 16:00:00 34.1 10 Norte 26 Noroeste 0 -- -- 32
2019-08-11 15:00:00 32.6 6 Norte 26 Norte 0 -- -- 35
2019-08-11 14:00:00 31.2 10 Norte 30 Noroeste 0 -- -- 39
2019-08-11 13:00:00 28.3 6 Noroeste 24 Oeste 0 -- -- 45
2019-08-11 12:00:00 28.1 8 Noroeste 25 Oeste 0 -- -- 45
2019-08-11 11:00:00 27.4 9 Oeste 23 Oeste 0 -- -- 47
2019-08-11 10:00:00 24.2 10 Noroeste 26 Noroeste 0 -- -- 55
2019-08-11 09:00:00 21.9 8 Noroeste 23 Oeste 0 -- -- 60
2019-08-11 08:00:00 20 3 Oeste 4 Oeste 0 -- -- 67
2019-08-11 07:00:00 19.7 0 Calma 6 Este 0 -- -- 66
2019-08-11 06:00:00 20.3 3 Este 8 Nordeste 0 -- -- 65
2019-08-11 05:00:00 21.2 4 Nordeste 8 Norte 0 -- -- 62
2019-08-11 04:00:00 22.1 2 Norte 10 Norte 0 -- -- 60
2019-08-11 03:00:00 23.6 4 Norte 10 Noroeste 0 -- -- 55
2019-08-11 02:00:00 24.8 4 Norte 10 Noroeste 0 -- -- 50
2019-08-11 01:00:00 26.3 4 Noroeste 14 Noroeste 0 -- -- 42
2019-08-11 00:00:00 27.4 9 Oeste 15 Oeste 0 -- -- 41
2019-08-10 23:00:00 28.9 5 Noroeste 17 Norte 0 -- -- 40
2019-08-10 22:00:00 30.2 3 Norte 13 Norte 0 -- -- 39
2019-08-10 21:00:00 31.8 3 Oeste 16 Noroeste 0 -- -- 35
2019-08-10 20:00:00 33.7 4 Noroeste 17 Norte 0 -- -- 32
2019-08-10 19:00:00 34.3 6 Norte 19 Norte 0 -- -- 31
2019-08-10 18:00:00 34.4 6 Norte 21 Noroeste 0 -- -- 32
2019-08-10 17:00:00 34.6 8 Nordeste 20 Nordeste 0 -- -- 32
2019-08-10 16:00:00 35.3 7 Norte 23 Noroeste 0 -- -- 30
2019-08-10 15:00:00 35.1 9 Norte 24 Norte 0 -- -- 29
2019-08-10 14:00:00 33.4 8 Norte 22 Nordeste 0 -- -- 31
2019-08-10 13:00:00 32.6 6 Norte 18 Norte 0 -- -- 32
2019-08-10 12:00:00 31.1 4 Norte 20 Noroeste 0 -- -- 35
2019-08-10 11:00:00 29.3 9 Noroeste 25 Norte 0 -- -- 37
2019-08-10 10:00:00 27.3 7 Noroeste 22 Oeste 0 -- -- 43
2019-08-10 09:00:00 25.2 11 Noroeste 23 Oeste 0 -- -- 49
2019-08-10 08:00:00 22.7 10 Oeste 17 Oeste 0 -- -- 57
2019-08-10 07:00:00 21.9 10 Oeste 17 Oeste 0 -- -- 59
2019-08-10 06:00:00 22.3 6 Noroeste 15 Noroeste 0 -- -- 56
2019-08-10 05:00:00 22.5 5 Oeste 11 Oeste 0 -- -- 56
2019-08-10 04:00:00 23.4 3 Noroeste 12 Oeste 0 -- -- 58
2019-08-10 03:00:00 24 8 Oeste 12 Oeste 0 -- -- 61
2019-08-10 02:00:00 24.8 3 Noroeste 21 Noroeste 0 -- -- 60
2019-08-10 01:00:00 26 10 Noroeste 27 Oeste 0 -- -- 58
2019-08-10 00:00:00 27.3 8 Noroeste 47 Norte 0 -- -- 58
2019-08-09 23:00:00 30.4 12 Noroeste 31 Noroeste 0 -- -- 46
2019-08-09 22:00:00 34.1 20 Oeste 39 Oeste 0 -- -- 30
2019-08-09 21:00:00 36.1 31 Oeste 51 Oeste 0 -- -- 27
2019-08-09 20:00:00 37.9 29 Oeste 45 Oeste 0 -- -- 23
2019-08-09 19:00:00 39.6 24 Oeste 44 Oeste 0 -- -- 23
2019-08-09 18:00:00 41.1 22 Oeste 41 Oeste 0 -- -- 21
2019-08-09 17:00:00 42 17 Oeste 44 Oeste 0 -- -- 21
2019-08-09 16:00:00 42 18 Oeste 40 Oeste 0 -- -- 19
2019-08-09 15:00:00 40.8 13 Oeste 33 Oeste 0 -- -- 20
2019-08-09 14:00:00 40 16 Oeste 39 Oeste 0 -- -- 21
2019-08-09 13:00:00 38.1 13 Oeste 28 Oeste 0 -- -- 24
2019-08-09 12:00:00 36.8 6 Nordeste 17 Nordeste 0 -- -- 29
2019-08-09 11:00:00 34.6 4 Norte 11 Nordeste 0 -- -- 34
2019-08-09 10:00:00 30.2 3 Norte 7 Norte 0 -- -- 42
2019-08-09 09:00:00 27.2 3 Noroeste 9 Oeste 0 -- -- 46
2019-08-09 08:00:00 23.6 6 Sudoeste 9 Sudoeste 0 -- -- 52
2019-08-09 07:00:00 23.3 3 Este 12 Nordeste 0 -- -- 53
2019-08-09 06:00:00 24.2 6 Sudoeste 13 Este 0 -- -- 47
2019-08-09 05:00:00 24.9 6 Este 14 Oeste 0 -- -- 48
2019-08-09 04:00:00 26.2 8 Oeste 13 Oeste 0 -- -- 44
2019-08-09 03:00:00 26.5 7 Sudoeste 12 Oeste 0 -- -- 45
2019-08-09 02:00:00 27 2 Sur 11 Sudoeste 0 -- -- 46
2019-08-09 01:00:00 27.6 4 Sudoeste 8 Sudoeste 0 -- -- 46
2019-08-09 00:00:00 29.3 0 Calma 19 Sur 0 -- -- 43
2019-08-08 23:00:00 31.7 16 Sur 30 Sudeste 0 -- -- 37
2019-08-08 22:00:00 32.4 17 Este 23 Este 0 -- -- 39
2019-08-08 21:00:00 34.1 13 Este 25 Nordeste 0 -- -- 33
2019-08-08 20:00:00 35.2 12 Nordeste 23 Nordeste 0 -- -- 29
2019-08-08 19:00:00 36.5 7 Nordeste 19 Nordeste 0 -- -- 28
2019-08-08 18:00:00 37.2 8 Nordeste 21 Este 0 -- -- 27
2019-08-08 17:00:00 36.5 12 Nordeste 24 Nordeste 0 -- -- 28
2019-08-08 16:00:00 36.3 14 Nordeste 26 Este 0 -- -- 29
2019-08-08 15:00:00 34.7 7 Nordeste 23 Nordeste 0 -- -- 31
2019-08-08 14:00:00 34.6 14 Este 23 Este 0 -- -- 31
2019-08-08 13:00:00 34.9 7 Norte 14 Noroeste 0 -- -- 31
2019-08-08 12:00:00 32.8 4 Sur 21 Oeste 0 -- -- 33
2019-08-08 11:00:00 31.8 5 Noroeste 24 Oeste 0 -- -- 35
2019-08-08 10:00:00 29.7 6 Noroeste 15 Noroeste 0 -- -- 38
2019-08-08 09:00:00 26.7 2 Oeste 16 Sudoeste 0 -- -- 44
2019-08-08 08:00:00 23.7 10 Sudoeste 18 Sudoeste 0 -- -- 50
2019-08-08 07:00:00 22.5 0 Calma 12 Sudoeste 0 -- -- 52
2019-08-08 06:00:00 23 8 Sudoeste 19 Sudoeste 0 -- -- 51
2019-08-08 05:00:00 23.8 15 Sudoeste 20 Sudoeste 0 -- -- 49
2019-08-08 04:00:00 23.7 12 Sudoeste 18 Sudoeste 0 -- -- 50
2019-08-08 03:00:00 24.9 12 Sudoeste 18 Sudoeste 0 -- -- 50
2019-08-08 02:00:00 25.7 9 Sudoeste 16 Sudoeste 0 -- -- 48
2019-08-08 01:00:00 25.3 8 Sudoeste 15 Sudoeste 0 -- -- 50
2019-08-08 00:00:00 26.6 4 Sudoeste 7 Noroeste 0 -- -- 47
2019-08-07 23:00:00 28.1 2 Norte 10 Sudeste 0 -- -- 43
2019-08-07 22:00:00 28.7 6 Sur 14 Sudeste 0 -- -- 42
2019-08-07 21:00:00 29.4 5 Sudeste 10 Este 0 -- -- 41
2019-08-07 20:00:00 30.4 6 Sudeste 13 Este 0 -- -- 40
2019-08-07 19:00:00 30.6 6 Este 14 Este 0 -- -- 40
2019-08-07 18:00:00 31 5 Este 8 Nordeste 0 -- -- 39
2019-08-07 17:00:00 31 2 Sudeste 14 Nordeste 0 -- -- 38
2019-08-07 16:00:00 31.8 3 Norte 14 Nordeste 0 -- -- 39
2019-08-07 15:00:00 30.2 6 Este 14 Nordeste 0 -- -- 42
2019-08-07 14:00:00 30 5 Nordeste 12 Nordeste 0 -- -- 43
2019-08-07 13:00:00 29.5 5 Nordeste 13 Norte 0 -- -- 45
2019-08-07 12:00:00 29.2 5 Nordeste 15 Nordeste 0 -- -- 46
2019-08-07 11:00:00 27.8 3 Norte 14 Noroeste 0 -- -- 50
2019-08-07 10:00:00 26.2 4 Noroeste 13 Noroeste 0 -- -- 54
2019-08-07 09:00:00 23.4 3 Noroeste 17 Oeste 0 -- -- 61
2019-08-07 08:00:00 22.6 8 Oeste 16 Oeste 0 -- -- 62
2019-08-07 07:00:00 22.6 11 Oeste 26 Oeste 0 -- -- 63
2019-08-07 06:00:00 23 12 Oeste 24 Oeste 0 -- -- 62
2019-08-07 05:00:00 23.6 12 Oeste 27 Noroeste 0 -- -- 61
2019-08-07 04:00:00 24.1 9 Oeste 21 Noroeste 0 -- -- 61
2019-08-07 03:00:00 24.7 6 Noroeste 19 Noroeste 0 -- -- 59
2019-08-07 02:00:00 25.6 6 Oeste 14 Oeste 0 -- -- 54
2019-08-07 01:00:00 27.2 5 Norte 12 Norte 0 -- -- 49
2019-08-07 00:00:00 29 4 Sur 17 Sudeste 0 -- -- 52
2019-08-06 23:00:00 30 12 Sudeste 19 Sudeste 0 -- -- 44
2019-08-06 22:00:00 32.1 15 Este 21 Este 0 -- -- 39
2019-08-06 21:00:00 33.9 16 Este 26 Este 0 -- -- 38
2019-08-06 20:00:00 35.5 10 Este 19 Nordeste 0 -- -- 26
2019-08-06 19:00:00 35.9 10 Sudeste 19 Sudeste 0 -- -- 27
2019-08-06 18:00:00 37.4 5 Norte 14 Nordeste 0 -- -- 25
2019-08-06 17:00:00 36.5 4 Norte 18 Nordeste 0 -- -- 26
2019-08-06 16:00:00 37.1 5 Nordeste 19 Nordeste 0 -- -- 29
2019-08-06 15:00:00 35.8 6 Norte 21 Nordeste 0 -- -- 34
2019-08-06 14:00:00 32.8 8 Nordeste 21 Nordeste 0 -- -- 41
2019-08-06 13:00:00 31.4 5 Norte 14 Nordeste 0 -- -- 47
2019-08-06 12:00:00 29.7 4 Nordeste 15 Noroeste 0 -- -- 51
2019-08-06 11:00:00 28.7 5 Norte 13 Norte 0 -- -- 53
2019-08-06 10:00:00 26.4 5 Norte 14 Norte 0 -- -- 57
2019-08-06 09:00:00 24.3 5 Noroeste 10 Noroeste 0 -- -- 63
2019-08-06 08:00:00 21.1 5 Oeste 10 Oeste 0 -- -- 69
2019-08-06 07:00:00 20.5 6 Oeste 10 Oeste 0 -- -- 71
2019-08-06 06:00:00 20.9 4 Oeste 12 Oeste 0 -- -- 69
2019-08-06 05:00:00 21.6 6 Sudoeste 9 Sudoeste 0 -- -- 73
2019-08-06 04:00:00 22.2 0 Calma 8 Noroeste 0 -- -- 68
2019-08-06 03:00:00 23.1 3 Noroeste 10 Noroeste 0 -- -- 65
2019-08-06 02:00:00 23.9 3 Oeste 6 Oeste 0 -- -- 62
2019-08-06 01:00:00 24.9 3 Nordeste 13 Nordeste 0 -- -- 59
2019-08-06 00:00:00 26.1 10 Nordeste 20 Nordeste 0 -- -- 55
2019-08-05 23:00:00 28.1 14 Este 23 Este 0 -- -- 50
2019-08-05 22:00:00 29.9 10 Nordeste 26 Este 0 -- -- 44
2019-08-05 21:00:00 31.9 20 Este 35 Nordeste 0 -- -- 42
2019-08-05 20:00:00 34.1 22 Nordeste 33 Nordeste 0 -- -- 39
2019-08-05 19:00:00 35.6 21 Nordeste 32 Este 0 -- -- 31
2019-08-05 18:00:00 36.9 14 Nordeste 26 Este 0 -- -- 29
2019-08-05 17:00:00 36.7 11 Nordeste 25 Nordeste 0 -- -- 30
2019-08-05 16:00:00 35.5 11 Este 22 Este 0 -- -- 35
2019-08-05 15:00:00 34.1 8 Nordeste 20 Este 0 -- -- 38
2019-08-05 14:00:00 33.1 7 Nordeste 19 Este 0 -- -- 40
2019-08-05 13:00:00 31.3 5 Norte 13 Nordeste 0 -- -- 44
2019-08-05 12:00:00 -- -- -- -- -- -- -- -- --
2019-08-05 11:00:00 28 6 Norte 13 Noroeste 0 -- -- 51
2019-08-05 10:00:00 26.4 5 Noroeste 12 Noroeste 0 -- -- 55
2019-08-05 09:00:00 24.1 5 Norte 10 Noroeste 0 -- -- 62
2019-08-05 08:00:00 21.9 3 Oeste 16 Oeste 0 -- -- 67
2019-08-05 07:00:00 21.1 4 Oeste 18 Oeste 0 -- -- 69
2019-08-05 06:00:00 21.4 8 Oeste 17 Oeste 0 -- -- 68
2019-08-05 05:00:00 22.3 12 Oeste 22 Oeste 0 -- -- 66
2019-08-05 04:00:00 23.1 8 Noroeste 16 Noroeste 0 -- -- 63
2019-08-05 03:00:00 23.6 5 Noroeste 16 Oeste 0 -- -- 63
2019-08-05 02:00:00 23.9 8 Noroeste 13 Noroeste 0 -- -- 73
2019-08-05 01:00:00 25 4 Nordeste 14 Nordeste 0 -- -- 70
2019-08-05 00:00:00 26.5 6 Nordeste 17 Este 0 -- -- 64
2019-08-04 23:00:00 27.9 6 Este 15 Nordeste 0 -- -- 60
2019-08-04 22:00:00 29.5 10 Nordeste 19 Este 0 -- -- 57
2019-08-04 21:00:00 31.4 11 Sudeste 28 Sudeste 0 -- -- 47
2019-08-04 20:00:00 31.4 24 Sudeste 53 Este 0 -- -- 48
2019-08-04 19:00:00 36.1 22 Nordeste 31 Nordeste 0 -- -- 29
2019-08-04 18:00:00 37.8 6 Norte 27 Nordeste 0 -- -- 26
2019-08-04 17:00:00 37.8 8 Norte 23 Nordeste 0 -- -- 28
2019-08-04 16:00:00 35.9 12 Este 24 Nordeste 0 -- -- 29
2019-08-04 15:00:00 35.8 9 Este 20 Este 0 -- -- 35
2019-08-04 14:00:00 33.7 8 Nordeste 18 Nordeste 0 -- -- 39
2019-08-04 13:00:00 32.6 4 Nordeste 12 Noroeste 0 -- -- 41
2019-08-04 12:00:00 30.4 4 Este 13 Noroeste 0 -- -- 44
2019-08-04 11:00:00 29 4 Noroeste 13 Oeste 0 -- -- 48
2019-08-04 10:00:00 26.7 5 Noroeste 13 Oeste 0 -- -- 53
2019-08-04 09:00:00 23.7 7 Oeste 12 Oeste 0 -- -- 61
2019-08-04 08:00:00 20.4 8 Oeste 10 Sudoeste 0 -- -- 77
2019-08-04 07:00:00 20.1 6 Sudoeste 11 Oeste 0 -- -- 77
2019-08-04 06:00:00 20.1 8 Oeste 10 Oeste 0 -- -- 78
2019-08-04 05:00:00 20.7 4 Sudoeste 9 Sudoeste 0 -- -- 75
2019-08-04 04:00:00 21.2 3 Sudoeste 6 Oeste 0 -- -- 76
2019-08-04 03:00:00 21.9 3 Sudoeste 8 Sudoeste 0 -- -- 75
2019-08-04 02:00:00 23.1 2 Oeste 8 Nordeste 0 -- -- 72
2019-08-04 01:00:00 23.8 5 Nordeste 8 Nordeste 0 -- -- 71
2019-08-04 00:00:00 24.8 4 Nordeste 13 Este 0 -- -- 71
2019-08-03 23:00:00 25.8 10 Nordeste 21 Este 0 -- -- 71
2019-08-03 22:00:00 26.8 13 Nordeste 21 Este 0 -- -- 69
2019-08-03 21:00:00 28.7 12 Este 25 Nordeste 0 -- -- 63
2019-08-03 20:00:00 32 18 Este 46 Este 0 -- -- 49
2019-08-03 19:00:00 35.6 17 Nordeste 37 Nordeste 0 -- -- 35
2019-08-03 18:00:00 36.2 18 Nordeste 37 Nordeste 0 -- -- 33
2019-08-03 17:00:00 37 15 Nordeste 28 Nordeste 0 -- -- 30
2019-08-03 16:00:00 36.8 9 Norte 27 Nordeste 0 -- -- 29
2019-08-03 15:00:00 35.2 8 Nordeste 23 Nordeste 0 -- -- 31
2019-08-03 14:00:00 33.2 10 Nordeste 18 Este 0 -- -- 33
2019-08-03 13:00:00 31.1 8 Este 17 Este 0 -- -- 35
2019-08-03 12:00:00 29.5 4 Nordeste 14 Norte 0 -- -- 41
2019-08-03 11:00:00 27.5 4 Noroeste 12 Noroeste 0 -- -- 46
2019-08-03 10:00:00 25.9 4 Norte 10 Noroeste 0 -- -- 49
2019-08-03 09:00:00 23.1 3 Oeste 13 Sudoeste 0 -- -- 50
2019-08-03 08:00:00 19.3 8 Sudoeste 11 Sudoeste 0 -- -- 61
2019-08-03 07:00:00 19.4 6 Sudoeste 8 Sudoeste 0 -- -- 63
2019-08-03 06:00:00 19.9 3 Sudoeste 4 Sudoeste 0 -- -- 61
2019-08-03 05:00:00 21 0 Calma 3 Nordeste 0 -- -- 57
2019-08-03 04:00:00 22.5 0 Calma 6 Nordeste 0 -- -- 49
2019-08-03 03:00:00 23.2 3 Norte 9 Sudoeste 0 -- -- 46
2019-08-03 02:00:00 23.1 7 Sudoeste 12 Sudoeste 0 -- -- 48
2019-08-03 01:00:00 23.9 9 Sudoeste 12 Sudoeste 0 -- -- 49
2019-08-03 00:00:00 26 5 Sudoeste 8 Sudoeste 0 -- -- 44
2019-08-02 23:00:00 28 3 Norte 16 Nordeste 0 -- -- 41
2019-08-02 22:00:00 29.7 7 Sudoeste 8 Sudoeste 0 -- -- 35
2019-08-02 21:00:00 31.7 4 Oeste 7 Noroeste 0 -- -- 33
2019-08-02 20:00:00 33.4 3 Norte 15 Noroeste 0 -- -- 30
2019-08-02 19:00:00 34.1 4 Norte 16 Nordeste 0 -- -- 30
2019-08-02 18:00:00 35.5 5 Norte 17 Norte 0 -- -- 30
2019-08-02 17:00:00 35.9 6 Norte 21 Noroeste 0 -- -- 32
2019-08-02 16:00:00 35 9 Norte 21 Noroeste 0 -- -- 33
2019-08-02 15:00:00 34 7 Norte 15 Noroeste 0 -- -- 35
2019-08-02 14:00:00 32.5 6 Norte 18 Norte 0 -- -- 38
2019-08-02 13:00:00 30.7 6 Noroeste 19 Noroeste 0 -- -- 42
2019-08-02 12:00:00 29 4 Noroeste 16 Norte 0 -- -- 46
2019-08-02 11:00:00 27.2 4 Noroeste 19 Oeste 0 -- -- 50
2019-08-02 10:00:00 25.2 4 Noroeste 15 Norte 0 -- -- 56
2019-08-02 09:00:00 23.2 5 Noroeste 15 Oeste 0 -- -- 62
2019-08-02 08:00:00 20.5 8 Oeste 15 Oeste 0 -- -- 71
2019-08-02 07:00:00 19.9 7 Oeste 16 Oeste 0 -- -- 73
2019-08-02 06:00:00 20.3 9 Oeste 19 Oeste 0 -- -- 72
2019-08-02 05:00:00 20.9 10 Oeste 19 Oeste 0 -- -- 70
2019-08-02 04:00:00 21.4 12 Oeste 18 Oeste 0 -- -- 69
2019-08-02 03:00:00 22.4 12 Oeste 23 Noroeste 0 -- -- 66
2019-08-02 02:00:00 23.6 9 Noroeste 23 Noroeste 0 -- -- 63
2019-08-02 01:00:00 24.9 10 Noroeste 26 Oeste 0 -- -- 60
2019-08-02 00:00:00 25.8 2 Noroeste 18 Noroeste 0 -- -- 43
2019-08-01 23:00:00 26.9 8 Este 12 Nordeste 0 -- -- 41
2019-08-01 22:00:00 28.6 8 Nordeste 20 Nordeste 0 -- -- 38
2019-08-01 21:00:00 31 12 Nordeste 23 Este 0 -- -- 35
2019-08-01 20:00:00 32.4 15 Este 24 Este 0 -- -- 33
2019-08-01 19:00:00 33.4 11 Este 24 Este 0 -- -- 32
2019-08-01 18:00:00 34 10 Este 19 Este 0 -- -- 30
2019-08-01 17:00:00 35.1 7 Norte 21 Nordeste 0 -- -- 30
2019-08-01 16:00:00 34.5 6 Norte 20 Nordeste 0 -- -- 33
2019-08-01 15:00:00 33.2 10 Nordeste 21 Nordeste 0 -- -- 35
2019-08-01 14:00:00 32.2 5 Norte 13 Nordeste 0 -- -- 38
2019-08-01 13:00:00 30.3 4 Norte 18 Nordeste 0 -- -- 44
2019-08-01 12:00:00 28.4 7 Nordeste 15 Este 0 -- -- 51
2019-08-01 11:00:00 26.6 5 Norte 12 Noroeste 0 -- -- 60
2019-08-01 10:00:00 24.7 4 Norte 10 Noroeste 0 -- -- 67
2019-08-01 09:00:00 22.3 4 Oeste 10 Oeste 0 -- -- 77
2019-08-01 08:00:00 19.6 4 Sudoeste 6 Sudoeste 0 -- -- 88
2019-08-01 07:00:00 18.3 6 Sudoeste 9 Sudoeste 0 -- -- 89
2019-08-01 06:00:00 18.8 4 Sudoeste 8 Sudoeste 0 -- -- 88
2019-08-01 05:00:00 19.9 2 Nordeste 11 Este 0 -- -- 85
2019-08-01 04:00:00 20.5 9 Este 16 Este 0 -- -- 84
2019-08-01 03:00:00 21 9 Este 18 Nordeste 0 -- -- 82
2019-08-01 02:00:00 21.6 12 Nordeste 15 Nordeste 0 -- -- 79
2019-08-01 01:00:00 22.4 8 Nordeste 19 Este 0 -- -- 75
2019-08-01 00:00:00 23.5 11 Nordeste 19 Nordeste 0 -- -- 70
2019-07-31 23:00:00 25.2 12 Este 23 Sudeste 0 -- -- 63
2019-07-31 22:00:00 27.2 17 Este 29 Sudeste 0 -- -- 54
2019-07-31 21:00:00 28.8 19 Sudeste 34 Este 0 -- -- 49
2019-07-31 20:00:00 29.9 23 Este 39 Este 0 -- -- 45
2019-07-31 19:00:00 30.8 26 Este 42 Este 0 -- -- 42
2019-07-31 18:00:00 31.5 23 Nordeste 39 Nordeste 0 -- -- 41
2019-07-31 17:00:00 31.1 15 Nordeste 30 Nordeste 0 -- -- 38
2019-07-31 16:00:00 30.2 12 Nordeste 31 Este 0 -- -- 33
2019-07-31 15:00:00 29 9 Nordeste 30 Este 0 -- -- 33
2019-07-31 14:00:00 27.4 6 Nordeste 18 Nordeste 0 -- -- 35
2019-07-31 13:00:00 25.1 5 Este 15 Nordeste 0 -- -- 38
2019-07-31 12:00:00 23.8 4 Sur 12 Nordeste 0 -- -- 41
2019-07-31 11:00:00 23 3 Noroeste 14 Norte 0 -- -- 44
2019-07-31 10:00:00 21.7 4 Noroeste 14 Norte 0 -- -- 45
2019-07-31 09:00:00 19.2 3 Noroeste 9 Oeste 0 -- -- 53
2019-07-31 08:00:00 16.3 3 Oeste 13 Oeste 0 -- -- 59
2019-07-31 07:00:00 15.9 10 Oeste 16 Oeste 0 -- -- 60
2019-07-31 06:00:00 16 9 Oeste 15 Oeste 0 -- -- 60
2019-07-31 05:00:00 16.5 9 Oeste 15 Oeste 0 -- -- 58
2019-07-31 04:00:00 17.1 8 Oeste 22 Oeste 0 -- -- 55
2019-07-31 03:00:00 17.6 14 Oeste 22 Oeste 0 -- -- 54
2019-07-31 02:00:00 18.2 13 Oeste 23 Oeste 0 -- -- 51
2019-07-31 01:00:00 19.2 14 Oeste 28 Oeste 0 -- -- 49
2019-07-31 00:00:00 20.6 11 Oeste 27 Noroeste 0 -- -- 47
2019-07-30 23:00:00 21.9 7 Noroeste 27 Noroeste 0 -- -- 44
2019-07-30 22:00:00 23.6 7 Noroeste 20 Norte 0 -- -- 41
2019-07-30 21:00:00 25.2 5 Noroeste 26 Noroeste 0 -- -- 37
2019-07-30 20:00:00 27.4 6 Noroeste 28 Norte 0 -- -- 33
2019-07-30 19:00:00 29 12 Noroeste 31 Noroeste 0 -- -- 31
2019-07-30 18:00:00 30.7 10 Noroeste 26 Noroeste 0 -- -- 30
2019-07-30 17:00:00 31.1 10 Noroeste 28 Noroeste 0 -- -- 29
2019-07-30 16:00:00 30.8 10 Noroeste 27 Noroeste 0 -- -- 30
2019-07-30 15:00:00 30.4 8 Noroeste 31 Norte 0 -- -- 30
2019-07-30 14:00:00 29.3 7 Noroeste 22 Noroeste 0 -- -- 33
2019-07-30 13:00:00 28.3 9 Noroeste 31 Oeste 0 -- -- 35
2019-07-30 12:00:00 26.6 9 Noroeste 30 Oeste 0 -- -- 39
2019-07-30 11:00:00 24.7 13 Noroeste 34 Oeste 0 -- -- 44
2019-07-30 10:00:00 22.6 16 Oeste 37 Oeste 0 -- -- 49
2019-07-30 09:00:00 20.6 14 Noroeste 40 Oeste 0 -- -- 57
2019-07-30 08:00:00 18.5 23 Oeste 39 Oeste 0 -- -- 63
2019-07-30 07:00:00 17.8 18 Oeste 35 Oeste 0 -- -- 66
2019-07-30 06:00:00 18.3 17 Oeste 31 Oeste 0 -- -- 66
2019-07-30 05:00:00 18.8 21 Oeste 33 Oeste 0 -- -- 64
2019-07-30 04:00:00 19.4 13 Oeste 26 Oeste 0 -- -- 62
2019-07-30 03:00:00 20.4 16 Oeste 42 Noroeste 0 -- -- 59
2019-07-30 02:00:00 21.7 16 Oeste 35 Oeste 0 -- -- 57
2019-07-30 01:00:00 23.7 16 Noroeste 35 Noroeste 0 -- -- 53
2019-07-30 00:00:00 26.8 13 Noroeste 27 Noroeste 0 -- -- 47
2019-07-29 23:00:00 28.2 15 Sudeste 24 Sur 0 -- -- 50
2019-07-29 22:00:00 30.4 13 Sudeste 22 Este 0 -- -- 44
2019-07-29 21:00:00 32.2 14 Nordeste 26 Nordeste 0 -- -- 33
2019-07-29 20:00:00 33.5 17 Este 27 Este 0 -- -- 25
2019-07-29 19:00:00 34.4 9 Este 25 Este 0 -- -- 25
2019-07-29 18:00:00 35.4 10 Nordeste 23 Este 0 -- -- 24
2019-07-29 17:00:00 35.9 6 Norte 23 Nordeste 0 -- -- 24
2019-07-29 16:00:00 34.9 12 Nordeste 23 Este 0 -- -- 22
2019-07-29 15:00:00 34.6 7 Nordeste 19 Nordeste 0 -- -- 23
2019-07-29 14:00:00 32.2 10 Nordeste 19 Nordeste 0 -- -- 28
2019-07-29 13:00:00 30.3 7 Nordeste 17 Norte 0 -- -- 33
2019-07-29 12:00:00 28 7 Nordeste 15 Este 0 -- -- 38
2019-07-29 11:00:00 25.4 9 Este 16 Este 0 -- -- 42
2019-07-29 10:00:00 23.9 7 Nordeste 12 Este 0 -- -- 44
2019-07-29 09:00:00 20.9 3 Oeste 8 Sudoeste 0 -- -- 53
2019-07-29 08:00:00 17.7 0 Calma 4 Noroeste 0 -- -- 65
2019-07-29 07:00:00 16.7 0 Calma 4 Nordeste 0 -- -- 66
2019-07-29 06:00:00 17.3 2 Sur 11 Sudoeste 0 -- -- 63
2019-07-29 05:00:00 17.4 9 Sudoeste 14 Sudoeste 0 -- -- 63
2019-07-29 04:00:00 17.8 12 Sudoeste 17 Oeste 0 -- -- 61
2019-07-29 03:00:00 18.5 13 Sudoeste 16 Oeste 0 -- -- 60
2019-07-29 02:00:00 19.4 10 Sudoeste 13 Sudoeste 0 -- -- 56
2019-07-29 01:00:00 19.8 10 Sudoeste 13 Oeste 0 -- -- 57
2019-07-29 00:00:00 21.2 9 Oeste 11 Oeste 0 -- -- 53
2019-07-28 23:00:00 23 7 Oeste 9 Oeste 0 -- -- 45
2019-07-28 22:00:00 24.2 2 Sudoeste 14 Noroeste 0 -- -- 43
2019-07-28 21:00:00 26 7 Norte 22 Noroeste 0 -- -- 39
2019-07-28 20:00:00 28 10 Norte 25 Noroeste 0 -- -- 35
2019-07-28 19:00:00 29.4 9 Noroeste 22 Norte 0 -- -- 33
2019-07-28 18:00:00 30.6 6 Noroeste 27 Noroeste 0 -- -- 30
2019-07-28 17:00:00 31 9 Noroeste 32 Norte 0 -- -- 30
2019-07-28 16:00:00 30.5 8 Noroeste 34 Oeste 0 -- -- 30
2019-07-28 15:00:00 29.9 13 Noroeste 32 Oeste 0 -- -- 32
2019-07-28 14:00:00 28 12 Noroeste 35 Oeste 0 -- -- 34
2019-07-28 13:00:00 26.4 18 Noroeste 41 Oeste 0 -- -- 39
2019-07-28 12:00:00 25.2 13 Noroeste 38 Noroeste 0 -- -- 43
2019-07-28 11:00:00 23.4 11 Noroeste 39 Noroeste 0 -- -- 46
2019-07-28 10:00:00 21.5 15 Noroeste 37 Oeste 0 -- -- 52
2019-07-28 09:00:00 19.3 24 Oeste 44 Oeste 0 -- -- 58
2019-07-28 08:00:00 17.2 21 Oeste 34 Oeste 0 -- -- 64
2019-07-28 07:00:00 16.2 19 Oeste 29 Oeste 0 -- -- 67
2019-07-28 06:00:00 16.1 9 Oeste 27 Oeste 0 -- -- 66
2019-07-28 05:00:00 16.5 14 Oeste 37 Oeste 0 -- -- 65
2019-07-28 04:00:00 16.8 29 Oeste 48 Oeste 0 -- -- 66
2019-07-28 03:00:00 17 22 Oeste 35 Oeste 0 -- -- 66
2019-07-28 02:00:00 17.4 19 Oeste 40 Oeste 0 -- -- 65
2019-07-28 01:00:00 18 26 Oeste 44 Oeste 0 -- -- 65
2019-07-28 00:00:00 18.3 22 Oeste 43 Noroeste 0 -- -- 64
2019-07-27 23:00:00 19 15 Noroeste 37 Oeste 0 -- -- 60
2019-07-26 12:00:00 -- -- -- -- -- -- -- -- --
2019-07-26 11:00:00 24.7 3 Noroeste 20 Sudoeste 0 -- -- 70
2019-07-26 10:00:00 23.8 6 Oeste 19 Sudoeste 0 -- -- 72
2019-07-26 09:00:00 21.4 12 Sudoeste 28 Oeste 0.4 -- -- 84
2019-07-26 08:00:00 22.7 7 Oeste 18 Noroeste 0.2 -- -- 80
2019-07-26 07:00:00 21 5 Oeste 12 Oeste 0 -- -- 79
2019-07-26 06:00:00 21.9 5 Noroeste 11 Oeste 0 -- -- 75
2019-07-26 05:00:00 22.7 6 Sudoeste 21 Este 0 -- -- 71
2019-07-26 04:00:00 23.3 15 Este 24 Este 0 -- -- 69
2019-07-26 03:00:00 23.4 13 Nordeste 19 Nordeste 0 -- -- 69
2019-07-26 02:00:00 25.5 5 Este 22 Sur 0 -- -- 63
2019-07-26 01:00:00 25.3 6 Sudeste 9 Este 0 -- -- 64
2019-07-26 00:00:00 25.3 4 Sur 13 Sudoeste 0 -- -- 63